createdAt,value
2022-07-27T00:02:35.761Z,1.10
2022-07-27T00:07:38.135Z,1.27
2022-07-27T00:12:38.826Z,1.40
2022-07-27T00:17:39.524Z,1.20
2022-07-27T00:22:41.803Z,1.08
2022-07-27T00:27:42.401Z,1.10
2022-07-27T00:32:43.049Z,0.95
2022-07-27T00:37:44.968Z,1.27
2022-07-27T00:42:45.824Z,1.33
2022-07-27T00:47:46.416Z,1.45
2022-07-27T00:52:49.514Z,1.40
2022-07-27T00:57:58.838Z,1.70
2022-07-27T01:03:02.521Z,1.30
2022-07-27T01:08:12.472Z,1.45
2022-07-27T01:13:13.649Z,2.25
2022-07-27T01:18:27.487Z,1.52
2022-07-27T01:23:32.496Z,1.38
2022-07-27T01:28:33.180Z,1.10
2022-07-27T01:33:33.778Z,1.40
2022-07-27T01:38:35.685Z,1.40
2022-07-27T01:43:36.341Z,1.42
2022-07-27T01:48:36.999Z,1.73
2022-07-27T01:53:39.038Z,1.20
2022-07-27T01:58:41.105Z,1.38
2022-07-27T02:03:41.690Z,1.30
2022-07-27T02:08:43.820Z,1.25
2022-07-27T02:13:44.912Z,1.70
2022-07-27T02:18:45.990Z,1.45
2022-07-27T02:23:51.067Z,1.85
2022-07-27T02:28:51.990Z,1.90
2022-07-27T02:33:52.617Z,1.70
2022-07-27T02:38:54.586Z,1.63
2022-07-27T02:43:55.220Z,1.90
2022-07-27T02:48:55.949Z,1.50
2022-07-27T02:53:57.896Z,1.80
2022-07-27T02:58:58.516Z,1.40
2022-07-27T03:03:59.213Z,1.90
2022-07-27T03:09:01.207Z,1.75
2022-07-27T03:14:01.828Z,1.15
2022-07-27T03:19:02.686Z,2.08
2022-07-27T03:24:04.895Z,1.38
2022-07-27T03:29:05.502Z,1.20
2022-07-27T03:34:06.255Z,1.65
2022-07-27T03:39:09.164Z,1.40
2022-07-27T03:44:09.955Z,1.10
2022-07-27T03:49:13.797Z,1.00
2022-07-27T03:54:17.815Z,1.60
2022-07-27T03:59:18.422Z,1.20
2022-07-27T04:04:19.046Z,0.95
2022-07-27T04:09:21.015Z,1.27
2022-07-27T04:14:21.854Z,1.20
2022-07-27T04:19:22.512Z,1.55
2022-07-27T04:24:24.476Z,1.35
2022-07-27T04:29:25.168Z,1.27
2022-07-27T04:34:25.993Z,1.45
2022-07-27T04:39:27.898Z,1.08
2022-07-27T04:44:28.507Z,0.90
2022-07-27T04:49:29.290Z,1.00
2022-07-27T04:54:31.241Z,1.40
2022-07-27T04:59:31.891Z,1.45
2022-07-27T05:04:32.612Z,1.15
2022-07-27T05:09:34.577Z,1.80
2022-07-27T05:14:35.185Z,1.30
2022-07-27T05:19:40.252Z,1.63
2022-07-27T05:24:42.882Z,1.20
2022-07-27T05:29:43.551Z,1.50
2022-07-27T05:34:46.054Z,1.27
2022-07-27T05:39:48.353Z,1.40
2022-07-27T05:44:49.036Z,1.20
2022-07-27T05:49:49.681Z,1.25
2022-07-27T05:54:52.868Z,0.88
2022-07-27T05:59:55.071Z,1.23
2022-07-27T06:04:55.746Z,1.08
2022-07-27T06:09:58.771Z,1.60
2022-07-27T06:14:59.413Z,1.10
2022-07-27T06:20:00.551Z,1.27
2022-07-27T06:25:02.546Z,1.50
2022-07-27T06:30:03.322Z,0.93
2022-07-27T06:35:04.777Z,0.90
2022-07-27T06:40:08.994Z,1.17
2022-07-27T06:45:11.037Z,0.95
2022-07-27T06:50:12.894Z,1.38
2022-07-27T06:55:14.950Z,0.95
2022-07-27T07:00:16.272Z,1.52
2022-07-27T07:05:16.870Z,1.05
2022-07-27T07:10:18.934Z,1.38
2022-07-27T07:15:22.906Z,1.30
2022-07-27T07:20:24.017Z,1.67
2022-07-27T07:25:26.386Z,1.10
2022-07-27T07:30:27.998Z,1.40
2022-07-27T07:35:29.158Z,1.23
2022-07-27T07:40:46.739Z,1.00
2022-07-27T07:45:50.148Z,0.93
2022-07-27T07:50:53.988Z,1.20
2022-07-27T07:55:56.760Z,0.90
2022-07-27T08:00:57.455Z,1.08
2022-07-27T08:05:58.169Z,1.00
2022-07-27T08:11:00.115Z,0.93
2022-07-27T08:16:00.894Z,1.10
2022-07-27T08:21:01.594Z,1.05
2022-07-27T08:26:07.727Z,0.60
2022-07-27T08:31:15.281Z,0.82
2022-07-27T08:36:19.769Z,0.85
2022-07-27T08:41:26.017Z,0.90
2022-07-27T08:46:28.463Z,0.65
2022-07-27T08:51:29.937Z,0.80
2022-07-27T08:56:32.009Z,0.80
2022-07-27T09:01:33.095Z,0.88
2022-07-27T09:06:45.205Z,0.70
2022-07-27T09:12:07.947Z,0.80
2022-07-27T09:22:46.839Z,0.82
2022-07-27T09:27:49.737Z,0.80
2022-07-27T09:32:54.670Z,0.90
2022-07-27T09:37:55.339Z,1.00
2022-07-27T09:44:12.198Z,1.23
2022-07-27T09:48:36.769Z,1.60
2022-07-27T09:53:43.229Z,1.00
2022-07-27T09:58:50.937Z,1.02
2022-07-27T10:03:53.678Z,0.65
2022-07-27T10:08:56.772Z,0.90
2022-07-27T10:14:00.193Z,0.70
2022-07-27T10:19:09.745Z,0.70
2022-07-27T10:24:13.883Z,0.70
2022-07-27T10:29:20.300Z,1.00
2022-07-27T10:34:35.100Z,0.77
2022-07-27T10:39:38.810Z,0.68
2022-07-27T10:44:53.114Z,0.90
2022-07-27T10:50:22.086Z,0.98
2022-07-27T10:55:42.849Z,1.50
2022-07-27T11:01:03.085Z,1.02
2022-07-27T11:06:31.311Z,0.88
2022-07-27T11:11:28.329Z,1.08
2022-07-27T11:16:31.326Z,1.00
2022-07-27T11:21:36.072Z,1.40
2022-07-27T11:26:41.299Z,1.38
2022-07-27T11:31:59.337Z,1.73
2022-07-27T11:37:03.117Z,1.33
2022-07-27T11:42:09.055Z,0.75
2022-07-27T11:47:17.418Z,0.90
2022-07-27T11:52:19.696Z,0.90
2022-07-27T11:57:21.197Z,0.68
2022-07-27T12:02:22.261Z,0.88
2022-07-27T12:07:31.257Z,0.90
2022-07-27T12:12:33.662Z,1.60
2022-07-27T12:17:35.138Z,0.80
2022-07-27T12:22:39.682Z,1.23
2022-07-27T12:27:40.382Z,0.80
2022-07-27T12:32:43.721Z,0.93
2022-07-27T12:37:45.901Z,0.85
2022-07-27T12:42:46.834Z,1.13
2022-07-27T12:47:47.548Z,1.00
2022-07-27T12:52:52.223Z,0.65
2022-07-27T12:57:56.546Z,0.80
2022-07-27T13:02:58.609Z,0.90
2022-07-27T13:08:00.989Z,0.65
2022-07-27T13:13:01.833Z,0.50
2022-07-27T13:18:02.711Z,0.65
2022-07-27T13:23:08.348Z,1.00
2022-07-27T13:28:09.026Z,0.80
2022-07-27T13:33:09.951Z,1.25
2022-07-27T13:38:16.277Z,1.00
2022-07-27T13:43:20.346Z,0.90
2022-07-27T13:48:20.990Z,0.80
2022-07-27T13:53:23.100Z,0.80
2022-07-27T13:58:23.825Z,0.70
2022-07-27T14:03:24.474Z,0.77
2022-07-27T14:08:28.443Z,0.95
2022-07-27T14:13:32.644Z,0.63
2022-07-27T14:18:33.444Z,0.90
2022-07-27T14:23:36.753Z,0.70
2022-07-27T14:28:38.821Z,0.95
2022-07-27T14:33:40.701Z,0.65
2022-07-27T14:38:44.243Z,1.40
2022-07-27T14:43:44.892Z,1.10
2022-07-27T14:54:07.698Z,0.90
2022-07-27T14:59:08.574Z,0.80
2022-07-27T15:04:09.163Z,0.80
2022-07-27T15:09:11.377Z,0.70
2022-07-27T15:14:12.223Z,0.80
2022-07-27T15:19:13.042Z,0.70
2022-07-27T15:24:15.405Z,0.70
2022-07-27T15:29:16.245Z,0.80
2022-07-27T15:34:17.070Z,1.25
2022-07-27T15:39:20.818Z,0.75
2022-07-27T15:44:22.786Z,0.82
2022-07-27T15:49:23.880Z,0.80
2022-07-27T15:54:30.113Z,0.63
2022-07-27T15:59:33.676Z,0.70
2022-07-27T16:04:34.839Z,1.00
2022-07-27T16:09:37.264Z,0.57
2022-07-27T16:14:37.883Z,0.93
2022-07-27T16:19:38.566Z,0.90
2022-07-27T16:24:40.627Z,0.85
2022-07-27T16:29:41.324Z,0.60
2022-07-27T16:34:42.041Z,0.60
2022-07-27T16:39:44.724Z,0.75
2022-07-27T16:44:45.540Z,0.60
2022-07-27T16:49:46.309Z,0.70
2022-07-27T16:54:48.344Z,0.82
2022-07-27T16:59:49.298Z,1.15
2022-07-27T17:04:51.126Z,0.82
2022-07-27T17:09:53.173Z,0.65
2022-07-27T17:14:53.846Z,1.00
2022-07-27T17:19:54.558Z,0.70
2022-07-27T17:24:56.664Z,0.52
2022-07-27T17:29:57.397Z,0.68
2022-07-27T17:34:58.101Z,0.88
2022-07-27T17:40:00.190Z,0.95
2022-07-27T17:45:00.913Z,0.70
2022-07-27T17:50:01.614Z,0.75
2022-07-27T17:55:04.103Z,0.90
2022-07-27T18:00:06.298Z,0.70
2022-07-27T18:05:08.765Z,0.70
2022-07-27T18:10:11.100Z,0.82
2022-07-27T18:15:31.905Z,0.85
2022-07-27T18:20:32.738Z,1.00
2022-07-27T18:25:34.874Z,0.73
2022-07-27T18:30:35.691Z,0.70
2022-07-27T18:35:36.348Z,0.95
2022-07-27T18:40:39.440Z,0.70
2022-07-27T18:45:41.069Z,0.88
2022-07-27T18:50:41.740Z,0.93
2022-07-27T18:55:44.912Z,1.23
2022-07-27T19:00:45.547Z,0.80
2022-07-27T19:05:47.091Z,0.60
2022-07-27T19:10:49.195Z,0.90
2022-07-27T19:15:50.141Z,1.33
2022-07-27T19:20:50.837Z,1.98
2022-07-27T19:25:53.056Z,2.38
2022-07-27T19:30:54.389Z,2.70
2022-07-27T19:35:55.610Z,3.15
2022-07-27T19:40:57.604Z,2.83
2022-07-27T19:45:58.395Z,3.40
2022-07-27T19:51:04.772Z,3.20
2022-07-27T19:56:09.121Z,2.95
2022-07-27T20:01:11.502Z,2.30
2022-07-27T20:06:14.132Z,2.80
2022-07-27T20:11:16.206Z,2.50
2022-07-27T20:16:17.897Z,2.30
2022-07-27T20:21:23.020Z,2.08
2022-07-27T20:26:25.751Z,2.70
2022-07-27T20:31:26.679Z,3.00
2022-07-27T20:36:27.423Z,2.83
2022-07-27T20:41:29.507Z,3.00
2022-07-27T20:46:30.199Z,3.30
2022-07-27T20:51:30.991Z,3.17
2022-07-27T20:56:32.935Z,4.97
2022-07-27T21:01:33.684Z,6.15
2022-07-27T21:06:35.249Z,8.05
2022-07-27T21:11:37.313Z,4.22
2022-07-27T21:16:38.011Z,3.65
2022-07-27T21:21:38.766Z,3.30
2022-07-27T21:26:40.749Z,3.70
2022-07-27T21:31:46.375Z,3.50
2022-07-27T21:36:47.808Z,3.83
2022-07-27T21:41:49.722Z,3.55
2022-07-27T21:46:52.746Z,3.80
2022-07-27T21:51:53.360Z,3.83
2022-07-27T21:56:57.558Z,3.30
2022-07-27T22:01:58.858Z,4.30
2022-07-27T22:06:59.475Z,3.83
2022-07-27T22:12:01.420Z,4.07
2022-07-27T22:17:03.093Z,2.90
2022-07-27T22:22:05.271Z,3.40
2022-07-27T22:27:07.666Z,3.40
2022-07-27T22:32:10.569Z,3.67
2022-07-27T22:37:14.876Z,3.10
2022-07-27T22:42:17.241Z,3.35
2022-07-27T22:47:18.062Z,2.45
2022-07-27T22:52:18.815Z,2.45
2022-07-27T22:57:25.539Z,2.30
2022-07-27T23:02:26.983Z,1.90
2022-07-27T23:07:27.610Z,2.10
2022-07-27T23:12:29.613Z,1.63
2022-07-27T23:17:31.351Z,1.90
2022-07-27T23:22:31.967Z,2.28
2022-07-27T23:27:36.290Z,1.92
2022-07-27T23:32:37.207Z,1.60
2022-07-27T23:37:37.908Z,2.10
2022-07-27T23:42:39.896Z,1.70
2022-07-27T23:47:40.929Z,1.67
2022-07-27T23:52:41.742Z,2.08
2022-07-27T23:57:43.745Z,2.30
